Portada
METAR-TAF:

METAR-TAF

Aeropuertos :

Ciudad de Kuwait, Kuwait

Aeropuerto Internacional de Kuwait

latitud: 29-13N, longitud: 047-59E, altitud: 55 m

Observación

El informe se hizo hace 40 minutos, a las 23:00 UTC
Viento 3 kt del oeste
Temperatura 21°C
Humedad 23%
Presión 1013 hPa
Visibilidad 10 km o más
sin nubes por debajo de 1500 m y sin presencia de cumulonimbus.

METAR: OKBK 202300Z 28003KT CAVOK 21/M01 Q1013 NOSIG

Hora: 02:40 (23:40 UTC)

Pronóstico

El informe se hizo hace 5 horas y 33 minutos, a las 18:07 UTC
Pronóstico válido del 20 a las 18 UTC al 21 a las 24 UTC
Viento 3 kt con dirección variable
Visibilidad: 7000 m
Cielo despejado
Temporalmente
del 20 a las 18 UTC al 20 a las 22 UTC
Visibilidad: 3500 m
calima

TAF: OKBK 201807Z 2018/2124 VRB03KT 7000 SKC TEMPO 2018/2022 3500 HZ

Observaciones y pronósticos meteorológicos de más de 4000 aeropuertos (mensajes METAR y TAF).

Los puntos amarillos y rojos representan las estaciones disponibles.

Ponga el ratón en el punto deseado para ver el nombre de la estación.

Haga clic para ver las observaciones y los pronósticos meteorológicos.

Para cambiar el mapa : haga clic en los botones verdes con una cruz de color negro para hacer un zoom, en el botón verde con un guión para alejar o en las flechas verdes para mapas adyacentes.


METAR-TAF: